sensor_id;sensor_type;location;lat;lon;timestamp;P1;P2;P0
74434;PMS7003;62867;52.038;29.256;2023-08-21T00:01:06;3.8;3.8;3
74434;PMS7003;62867;52.038;29.256;2023-08-21T00:05:38;3.8;3.6;3.2
74434;PMS7003;62867;52.038;29.256;2023-08-21T00:10:29;4.8;4.6;3.4
74434;PMS7003;62867;52.038;29.256;2023-08-21T00:16:08;3.6;3.4;2.4
74434;PMS7003;62867;52.038;29.256;2023-08-21T00:20:54;4.2;4.2;3.2
74434;PMS7003;62867;52.038;29.256;2023-08-21T00:26:10;4;4;3.2
74434;PMS7003;62867;52.038;29.256;2023-08-21T00:31:10;3.2;3.2;2.6
74434;PMS7003;62867;52.038;29.256;2023-08-21T00:36:08;3.6;3.2;2.6
74434;PMS7003;62867;52.038;29.256;2023-08-21T00:40:28;3.5;3.5;2.5
74434;PMS7003;62867;52.038;29.256;2023-08-21T00:45:32;4.8;4.4;3.4
74434;PMS7003;62867;52.038;29.256;2023-08-21T00:50:48;3.6;3.6;3
74434;PMS7003;62867;52.038;29.256;2023-08-21T00:55:54;4;4;3
74434;PMS7003;62867;52.038;29.256;2023-08-21T01:00:46;3.8;3.8;3
74434;PMS7003;62867;52.038;29.256;2023-08-21T01:05:44;4;4;3.2
74434;PMS7003;62867;52.038;29.256;2023-08-21T01:10:48;4;4;2.8
74434;PMS7003;62867;52.038;29.256;2023-08-21T01:15:32;4;3.6;3
74434;PMS7003;62867;52.038;29.256;2023-08-21T01:20:38;4;4;3.2
74434;PMS7003;62867;52.038;29.256;2023-08-21T01:26:10;4.2;4.2;3.4
74434;PMS7003;62867;52.038;29.256;2023-08-21T01:30:55;3.8;3.8;3
74434;PMS7003;62867;52.038;29.256;2023-08-21T01:36:08;3.2;3.2;2.8
74434;PMS7003;62867;52.038;29.256;2023-08-21T01:40:53;4;3.8;2.8
74434;PMS7003;62867;52.038;29.256;2023-08-21T01:45:44;4.4;4;3
74434;PMS7003;62867;52.038;29.256;2023-08-21T01:50:46;4.2;4;3.4
74434;PMS7003;62867;52.038;29.256;2023-08-21T01:55:34;4.4;3.8;3.2
74434;PMS7003;62867;52.038;29.256;2023-08-21T02:00:32;4;4;3.2
74434;PMS7003;62867;52.038;29.256;2023-08-21T02:06:08;3.8;3.6;2.8
74434;PMS7003;62867;52.038;29.256;2023-08-21T02:11:08;4;4;3
74434;PMS7003;62867;52.038;29.256;2023-08-21T02:15:44;2.8;2.8;2.4
74434;PMS7003;62867;52.038;29.256;2023-08-21T02:20:42;4.2;3.6;2.8
74434;PMS7003;62867;52.038;29.256;2023-08-21T02:26:06;3.2;3.2;2.4
74434;PMS7003;62867;52.038;29.256;2023-08-21T02:30:36;4.2;3.4;3
74434;PMS7003;62867;52.038;29.256;2023-08-21T02:35:54;3.8;3.6;2.8
74434;PMS7003;62867;52.038;29.256;2023-08-21T02:41:00;4;3.3;2.3
74434;PMS7003;62867;52.038;29.256;2023-08-21T02:46:00;4;4;2.8
74434;PMS7003;62867;52.038;29.256;2023-08-21T02:50:38;4;3.6;3
74434;PMS7003;62867;52.038;29.256;2023-08-21T02:55:46;4.4;3.6;2.8
74434;PMS7003;62867;52.038;29.256;2023-08-21T03:01:10;3.2;3.2;2.2
74434;PMS7003;62867;52.038;29.256;2023-08-21T03:06:10;3.4;3.4;2.4
74434;PMS7003;62867;52.038;29.256;2023-08-21T03:10:47;3.8;3.6;2.4
74434;PMS7003;62867;52.038;29.256;2023-08-21T03:15:44;3.2;3.2;2.2
74434;PMS7003;62867;52.038;29.256;2023-08-21T03:20:54;3.8;3;2.8
74434;PMS7003;62867;52.038;29.256;2023-08-21T03:25:32;3.4;3.4;2.4
74434;PMS7003;62867;52.038;29.256;2023-08-21T03:31:02;3.6;3.2;2.4
74434;PMS7003;62867;52.038;29.256;2023-08-21T03:35:56;4;3.6;2.4
74434;PMS7003;62867;52.038;29.256;2023-08-21T03:41:00;2.4;2.4;2
74434;PMS7003;62867;52.038;29.256;2023-08-21T03:46:02;4.5;3.5;2.5
74434;PMS7003;62867;52.038;29.256;2023-08-21T03:50:50;3.4;3.4;2.6
74434;PMS7003;62867;52.038;29.256;2023-08-21T03:55:28;2.4;2.4;2
74434;PMS7003;62867;52.038;29.256;2023-08-21T04:00:42;3.2;2.6;1.8
74434;PMS7003;62867;52.038;29.256;2023-08-21T04:06:08;2.2;2;1.6
74434;PMS7003;62867;52.038;29.256;2023-08-21T04:10:28;2.2;2;1.6
74434;PMS7003;62867;52.038;29.256;2023-08-21T04:16:10;1.8;1.8;1.4
74434;PMS7003;62867;52.038;29.256;2023-08-21T04:21:08;2;2;1.8
74434;PMS7003;62867;52.038;29.256;2023-08-21T04:25:52;2.4;2.2;1.6
74434;PMS7003;62867;52.038;29.256;2023-08-21T04:30:28;1.4;1.4;1.2
74434;PMS7003;62867;52.038;29.256;2023-08-21T04:35:35;2.2;2.2;2
74434;PMS7003;62867;52.038;29.256;2023-08-21T04:41:08;3.4;3.4;2.4
74434;PMS7003;62867;52.038;29.256;2023-08-21T04:45:56;1.3;1;1
74434;PMS7003;62867;52.038;29.256;2023-08-21T04:51:00;2.2;2.2;1.6
74434;PMS7003;62867;52.038;29.256;2023-08-21T04:56:08;2.6;2.6;1.6
74434;PMS7003;62867;52.038;29.256;2023-08-21T05:01:08;5;5;2.2
74434;PMS7003;62867;52.038;29.256;2023-08-21T05:05:28;6.4;6.2;2.4
74434;PMS7003;62867;52.038;29.256;2023-08-21T05:10:38;7.6;7;3.4
74434;PMS7003;62867;52.038;29.256;2023-08-21T05:15:54;6.8;6.6;1.8
74434;PMS7003;62867;52.038;29.256;2023-08-21T05:20:55;7.8;7.2;3.2
74434;PMS7003;62867;52.038;29.256;2023-08-21T05:25:46;5.8;5.8;2.2
74434;PMS7003;62867;52.038;29.256;2023-08-21T05:30:28;7.4;6.8;2.4
74434;PMS7003;62867;52.038;29.256;2023-08-21T05:35:42;7.6;6.2;3.2
74434;PMS7003;62867;52.038;29.256;2023-08-21T05:40:28;7.2;6.2;2.6
74434;PMS7003;62867;52.038;29.256;2023-08-21T05:45:38;6.3;6;2.8
74434;PMS7003;62867;52.038;29.256;2023-08-21T05:51:08;5;4.2;2.6
74434;PMS7003;62867;52.038;29.256;2023-08-21T05:55:54;4.6;4;3
74434;PMS7003;62867;52.038;29.256;2023-08-21T06:01:08;4;3.8;2.6
74434;PMS7003;62867;52.038;29.256;2023-08-21T06:05:44;4.2;3.8;2.8
74434;PMS7003;62867;52.038;29.256;2023-08-21T06:10:28;4.2;3.2;2.2
74434;PMS7003;62867;52.038;29.256;2023-08-21T06:15:46;3.6;3.4;2.6
74434;PMS7003;62867;52.038;29.256;2023-08-21T06:20:56;3.8;2.8;1.8
74434;PMS7003;62867;52.038;29.256;2023-08-21T06:25:47;3.4;2.6;1.8
74434;PMS7003;62867;52.038;29.256;2023-08-21T06:31:00;4;3;2.4
74434;PMS7003;62867;52.038;29.256;2023-08-21T06:36:06;3.2;3;2.2
74434;PMS7003;62867;52.038;29.256;2023-08-21T06:40:44;2.2;2.2;1.6
74434;PMS7003;62867;52.038;29.256;2023-08-21T06:45:28;3;3;2.5
74434;PMS7003;62867;52.038;29.256;2023-08-21T06:51:06;3.4;3.4;2.6
74434;PMS7003;62867;52.038;29.256;2023-08-21T06:56:08;3.2;2.8;1.8
74434;PMS7003;62867;52.038;29.256;2023-08-21T07:00:28;3.4;3.2;2
74434;PMS7003;62867;52.038;29.256;2023-08-21T07:06:00;3;2.6;2
74434;PMS7003;62867;52.038;29.256;2023-08-21T07:11:01;3.2;2.6;1.6
74434;PMS7003;62867;52.038;29.256;2023-08-21T07:15:34;3;3;2
74434;PMS7003;62867;52.038;29.256;2023-08-21T07:20:32;3.4;3;2
74434;PMS7003;62867;52.038;29.256;2023-08-21T07:25:30;3.2;3;2.2
74434;PMS7003;62867;52.038;29.256;2023-08-21T07:31:00;3.2;2.8;2.2
74434;PMS7003;62867;52.038;29.256;2023-08-21T07:36:08;3.4;3.2;2.2
74434;PMS7003;62867;52.038;29.256;2023-08-21T07:40:28;3.4;2.8;2.2
74434;PMS7003;62867;52.038;29.256;2023-08-21T07:46:09;4.3;4;3
74434;PMS7003;62867;52.038;29.256;2023-08-21T07:50:28;3;2.4;2
74434;PMS7003;62867;52.038;29.256;2023-08-21T07:56:08;3.2;3.2;2.2
74434;PMS7003;62867;52.038;29.256;2023-08-21T08:01:06;4.2;4.2;3
74434;PMS7003;62867;52.038;29.256;2023-08-21T08:06:00;4.4;4.4;2.8
74434;PMS7003;62867;52.038;29.256;2023-08-21T08:10:53;4.8;3.8;3
74434;PMS7003;62867;52.038;29.256;2023-08-21T08:16:06;5;4;3
74434;PMS7003;62867;52.038;29.256;2023-08-21T08:21:00;3.6;3.6;2.8
74434;PMS7003;62867;52.038;29.256;2023-08-21T08:25:44;5;4.6;3.6
74434;PMS7003;62867;52.038;29.256;2023-08-21T08:31:06;4.4;4;3
74434;PMS7003;62867;52.038;29.256;2023-08-21T08:35:38;5;4.4;3.2
74434;PMS7003;62867;52.038;29.256;2023-08-21T08:41:10;4.2;3.4;2.6
74434;PMS7003;62867;52.038;29.256;2023-08-21T08:46:06;3.2;3;2.4
74434;PMS7003;62867;52.038;29.256;2023-08-21T08:50:50;4;3.5;2.5
74434;PMS7003;62867;52.038;29.256;2023-08-21T08:55:29;4.8;4.2;3.2
74434;PMS7003;62867;52.038;29.256;2023-08-21T09:00:32;4.4;3.8;2.4
74434;PMS7003;62867;52.038;29.256;2023-08-21T09:06:08;4.2;4;3
74434;PMS7003;62867;52.038;29.256;2023-08-21T09:10:48;3.4;3.2;2.2
74434;PMS7003;62867;52.038;29.256;2023-08-21T09:15:44;4.2;3.8;2.6
74434;PMS7003;62867;52.038;29.256;2023-08-21T09:21:06;4;4;3.2
74434;PMS7003;62867;52.038;29.256;2023-08-21T09:26:06;3.8;3.8;2.4
74434;PMS7003;62867;52.038;29.256;2023-08-21T09:30:46;3.2;3.2;2.4
74434;PMS7003;62867;52.038;29.256;2023-08-21T09:35:38;5.2;4.2;3.4
74434;PMS7003;62867;52.038;29.256;2023-08-21T09:40:38;4.2;4.2;2.8
74434;PMS7003;62867;52.038;29.256;2023-08-21T09:46:08;5.2;4.8;3
74434;PMS7003;62867;52.038;29.256;2023-08-21T09:50:44;5;4.5;3
74434;PMS7003;62867;52.038;29.256;2023-08-21T09:55:40;4;3.6;2.8
74434;PMS7003;62867;52.038;29.256;2023-08-21T10:00:29;3.6;3.6;2.4
74434;PMS7003;62867;52.038;29.256;2023-08-21T10:06:08;4.6;4.2;3.4
74434;PMS7003;62867;52.038;29.256;2023-08-21T10:10:52;5;5;3.6
74434;PMS7003;62867;52.038;29.256;2023-08-21T10:16:06;4.2;3.8;2.8
74434;PMS7003;62867;52.038;29.256;2023-08-21T10:20:42;4.8;4.8;3.6
74434;PMS7003;62867;52.038;29.256;2023-08-21T10:26:06;4.6;4.6;3.2
74434;PMS7003;62867;52.038;29.256;2023-08-21T10:30:40;3.8;3.8;2.6
74434;PMS7003;62867;52.038;29.256;2023-08-21T10:35:29;6.4;5.2;3.8
74434;PMS7003;62867;52.038;29.256;2023-08-21T10:40:32;4.6;4.2;2.8
74434;PMS7003;62867;52.038;29.256;2023-08-21T10:45:38;4.2;4;2.4
74434;PMS7003;62867;52.038;29.256;2023-08-21T10:50:58;3.8;3.8;2.3
74434;PMS7003;62867;52.038;29.256;2023-08-21T10:56:00;4.2;4;2.8
74434;PMS7003;62867;52.038;29.256;2023-08-21T11:01:06;2.8;2.6;2.6
74434;PMS7003;62867;52.038;29.256;2023-08-21T11:05:44;3;3;2.2
74434;PMS7003;62867;52.038;29.256;2023-08-21T11:10:32;3.4;3.4;2
74434;PMS7003;62867;52.038;29.256;2023-08-21T11:16:06;3;3;2
74434;PMS7003;62867;52.038;29.256;2023-08-21T11:21:06;4;4;2.8
74434;PMS7003;62867;52.038;29.256;2023-08-21T11:25:40;3;3;2.2
74434;PMS7003;62867;52.038;29.256;2023-08-21T11:30:44;2.6;2.2;1.8
74434;PMS7003;62867;52.038;29.256;2023-08-21T11:36:06;3;2.8;1.8
74434;PMS7003;62867;52.038;29.256;2023-08-21T11:40:28;3.2;3.2;2.4
74434;PMS7003;62867;52.038;29.256;2023-08-21T11:45:32;3.4;3.4;2.4
74434;PMS7003;62867;52.038;29.256;2023-08-21T11:50:52;3;3;2
74434;PMS7003;62867;52.038;29.256;2023-08-21T11:55:46;3.2;3;2.4
74434;PMS7003;62867;52.038;29.256;2023-08-21T12:01:08;2.6;2.6;1.8
74434;PMS7003;62867;52.038;29.256;2023-08-21T12:05:44;2.4;2.4;1.4
74434;PMS7003;62867;52.038;29.256;2023-08-21T12:11:06;3.2;2.8;2.6
74434;PMS7003;62867;52.038;29.256;2023-08-21T12:15:36;3.2;3;2.2
74434;PMS7003;62867;52.038;29.256;2023-08-21T12:21:06;2;2;1.4
74434;PMS7003;62867;52.038;29.256;2023-08-21T12:25:52;2.6;2.6;2
74434;PMS7003;62867;52.038;29.256;2023-08-21T12:30:46;2.6;2.6;2.2
74434;PMS7003;62867;52.038;29.256;2023-08-21T12:35:48;2.8;2.8;2
74434;PMS7003;62867;52.038;29.256;2023-08-21T12:40:52;2.6;2.6;2
74434;PMS7003;62867;52.038;29.256;2023-08-21T12:45:44;2.8;2.8;2.4
74434;PMS7003;62867;52.038;29.256;2023-08-21T12:50:28;3;3;2.5
74434;PMS7003;62867;52.038;29.256;2023-08-21T12:56:06;3.2;3.2;2.4
74434;PMS7003;62867;52.038;29.256;2023-08-21T13:00:52;3.2;2.8;2.2
74434;PMS7003;62867;52.038;29.256;2023-08-21T13:06:06;3.8;3.8;3
74434;PMS7003;62867;52.038;29.256;2023-08-21T13:11:06;3.8;3.4;2.6
74434;PMS7003;62867;52.038;29.256;2023-08-21T13:15:52;4.4;4.4;3.2
74434;PMS7003;62867;52.038;29.256;2023-08-21T13:20:28;3.4;3.2;2.6
74434;PMS7003;62867;52.038;29.256;2023-08-21T13:25:28;4.2;3.8;2.6
74434;PMS7003;62867;52.038;29.256;2023-08-21T13:31:06;4.6;4.4;3.4
74434;PMS7003;62867;52.038;29.256;2023-08-21T13:35:30;4.6;4.4;3
74434;PMS7003;62867;52.038;29.256;2023-08-21T13:40:44;5;4.6;3.6
74434;PMS7003;62867;52.038;29.256;2023-08-21T13:46:06;4.4;4;2.8
74434;PMS7003;62867;52.038;29.256;2023-08-21T13:50:44;5.3;4.5;3.5
74434;PMS7003;62867;52.038;29.256;2023-08-21T13:55:28;4.6;4.2;3
74434;PMS7003;62867;52.038;29.256;2023-08-21T14:00:54;3.6;3.4;2.8
74434;PMS7003;62867;52.038;29.256;2023-08-21T14:05:56;4.4;3.8;2.8
74434;PMS7003;62867;52.038;29.256;2023-08-21T14:10:52;5.2;4.6;3.2
74434;PMS7003;62867;52.038;29.256;2023-08-21T14:15:28;4.6;3.8;3
74434;PMS7003;62867;52.038;29.256;2023-08-21T14:20:44;5.2;4.4;3.2
74434;PMS7003;62867;52.038;29.256;2023-08-21T14:25:28;4.4;4;3.2
74434;PMS7003;62867;52.038;29.256;2023-08-21T14:30:42;3.8;3.6;2.8
74434;PMS7003;62867;52.038;29.256;2023-08-21T14:35:46;4.2;4.2;3.4
74434;PMS7003;62867;52.038;29.256;2023-08-21T14:41:06;4;3.6;3
74434;PMS7003;62867;52.038;29.256;2023-08-21T14:45:30;4.4;3.2;2.8
74434;PMS7003;62867;52.038;29.256;2023-08-21T14:51:06;5.4;4.4;3
74434;PMS7003;62867;52.038;29.256;2023-08-21T14:55:44;4.5;4.3;3.3
74434;PMS7003;62867;52.038;29.256;2023-08-21T15:00:40;4;4;3.4
74434;PMS7003;62867;52.038;29.256;2023-08-21T15:05:28;4.4;3.2;2.2
74434;PMS7003;62867;52.038;29.256;2023-08-21T15:10:34;4;3.8;2.6
74434;PMS7003;62867;52.038;29.256;2023-08-21T15:15:44;4.2;4;3
74434;PMS7003;62867;52.038;29.256;2023-08-21T15:20:56;4.8;4.6;3.6
74434;PMS7003;62867;52.038;29.256;2023-08-21T15:26:06;4.6;4.6;3.2
74434;PMS7003;62867;52.038;29.256;2023-08-21T15:30:40;5.2;4.6;3.2
74434;PMS7003;62867;52.038;29.256;2023-08-21T15:35:32;4.8;4.2;3
74434;PMS7003;62867;52.038;29.256;2023-08-21T15:41:06;4.2;3.8;3
74434;PMS7003;62867;52.038;29.256;2023-08-21T15:46:06;3.6;3.2;2.2
74434;PMS7003;62867;52.038;29.256;2023-08-21T15:50:44;4;3.6;2.2
74434;PMS7003;62867;52.038;29.256;2023-08-21T15:55:40;3.3;2.8;1.5
74434;PMS7003;62867;52.038;29.256;2023-08-21T16:01:08;3.8;2.8;1.6
74434;PMS7003;62867;52.038;29.256;2023-08-21T16:05:28;2.4;2.4;1.6
74434;PMS7003;62867;52.038;29.256;2023-08-21T16:10:28;2.8;2.4;1.8
74434;PMS7003;62867;52.038;29.256;2023-08-21T16:15:52;1.8;1.6;1.2
74434;PMS7003;62867;52.038;29.256;2023-08-21T16:20:58;3.8;3.8;2.6
74434;PMS7003;62867;52.038;29.256;2023-08-21T16:26:06;5.2;4.2;2.6
74434;PMS7003;62867;52.038;29.256;2023-08-21T16:30:44;3.6;3;2.4
74434;PMS7003;62867;52.038;29.256;2023-08-21T16:36:06;3.2;2.8;1.8
74434;PMS7003;62867;52.038;29.256;2023-08-21T16:41:06;3;2.8;1.8
74434;PMS7003;62867;52.038;29.256;2023-08-21T16:45:54;2;2;1.4
74434;PMS7003;62867;52.038;29.256;2023-08-21T16:50:52;2.6;2.2;1.4
74434;PMS7003;62867;52.038;29.256;2023-08-21T16:56:00;2;2;1.5
74434;PMS7003;62867;52.038;29.256;2023-08-21T17:00:52;2.4;1.8;1
74434;PMS7003;62867;52.038;29.256;2023-08-21T17:05:52;2.6;2.2;1.8
74434;PMS7003;62867;52.038;29.256;2023-08-21T17:10:28;4.8;3.4;2.4
74434;PMS7003;62867;52.038;29.256;2023-08-21T17:15:28;4;4;3.4
74434;PMS7003;62867;52.038;29.256;2023-08-21T17:21:08;4.2;3.2;2.8
74434;PMS7003;62867;52.038;29.256;2023-08-21T17:25:54;2.2;1.8;1.8
74434;PMS7003;62867;52.038;29.256;2023-08-21T17:31:06;4.2;3.2;2.4
74434;PMS7003;62867;52.038;29.256;2023-08-21T17:36:06;4.6;4.2;2.8
74434;PMS7003;62867;52.038;29.256;2023-08-21T17:40:52;4.8;4.2;2.6
74434;PMS7003;62867;52.038;29.256;2023-08-21T17:45:32;3.8;3.8;2.8
74434;PMS7003;62867;52.038;29.256;2023-08-21T17:50:28;3;3;2.4
74434;PMS7003;62867;52.038;29.256;2023-08-21T17:56:04;5.5;5.5;3.3
74434;PMS7003;62867;52.038;29.256;2023-08-21T18:00:52;5.6;5.6;4
74434;PMS7003;62867;52.038;29.256;2023-08-21T18:05:40;5;4.4;3.2
74434;PMS7003;62867;52.038;29.256;2023-08-21T18:11:06;7;6;3.6
74434;PMS7003;62867;52.038;29.256;2023-08-21T18:15:52;4.8;4.4;3.6
74434;PMS7003;62867;52.038;29.256;2023-08-21T18:20:46;4.6;4.4;3.4
74434;PMS7003;62867;52.038;29.256;2023-08-21T18:25:38;5.6;5.4;3.4
74434;PMS7003;62867;52.038;29.256;2023-08-21T18:30:53;4.2;3.4;3.2
74434;PMS7003;62867;52.038;29.256;2023-08-21T18:35:52;3.8;3.6;2.8
74434;PMS7003;62867;52.038;29.256;2023-08-21T18:40:28;7.4;7;3.8
74434;PMS7003;62867;52.038;29.256;2023-08-21T18:45:28;3.6;3.6;2.8
74434;PMS7003;62867;52.038;29.256;2023-08-21T18:50:44;2.8;2.8;2.2
74434;PMS7003;62867;52.038;29.256;2023-08-21T18:55:34;3.4;3.4;2.4
74434;PMS7003;62867;52.038;29.256;2023-08-21T19:00:28;4;4;2.8
74434;PMS7003;62867;52.038;29.256;2023-08-21T19:06:06;4.8;4;2.8
74434;PMS7003;62867;52.038;29.256;2023-08-21T19:10:52;4.6;4.2;3
74434;PMS7003;62867;52.038;29.256;2023-08-21T19:16:06;4;4;3
74434;PMS7003;62867;52.038;29.256;2023-08-21T19:20:40;4.4;3.2;2.6
74434;PMS7003;62867;52.038;29.256;2023-08-21T19:25:52;4.4;3.8;2.8
74434;PMS7003;62867;52.038;29.256;2023-08-21T19:30:28;3.8;3.6;2.6
74434;PMS7003;62867;52.038;29.256;2023-08-21T19:35:38;5.2;4.4;3
74434;PMS7003;62867;52.038;29.256;2023-08-21T19:40:44;3.8;3.6;2.6
74434;PMS7003;62867;52.038;29.256;2023-08-21T19:46:00;4;3.6;3
74434;PMS7003;62867;52.038;29.256;2023-08-21T19:51:00;7;6.6;6
74434;PMS7003;62867;52.038;29.256;2023-08-21T19:55:34;2.6;2.2;2
74434;PMS7003;62867;52.038;29.256;2023-08-21T20:00:28;3;2.8;2.3
74434;PMS7003;62867;52.038;29.256;2023-08-21T20:06:07;3.8;3.4;2.2
74434;PMS7003;62867;52.038;29.256;2023-08-21T20:11:10;4.6;4.6;3.2
74434;PMS7003;62867;52.038;29.256;2023-08-21T20:15:44;2.6;2.6;2.2
74434;PMS7003;62867;52.038;29.256;2023-08-21T20:20:44;5;4.4;2.8
74434;PMS7003;62867;52.038;29.256;2023-08-21T20:26:06;4.4;4.4;3.4
74434;PMS7003;62867;52.038;29.256;2023-08-21T20:30:46;2.8;2.4;1.8
74434;PMS7003;62867;52.038;29.256;2023-08-21T20:35:28;4.4;3.4;2
74434;PMS7003;62867;52.038;29.256;2023-08-21T20:40:52;4.6;4;2.4
74434;PMS7003;62867;52.038;29.256;2023-08-21T20:46:01;3.6;3.6;2.2
74434;PMS7003;62867;52.038;29.256;2023-08-21T20:50:54;5;4.6;2.2
74434;PMS7003;62867;52.038;29.256;2023-08-21T20:55:42;5.2;5.2;3.4
74434;PMS7003;62867;52.038;29.256;2023-08-21T21:01:06;6.5;6.3;4.5
74434;PMS7003;62867;52.038;29.256;2023-08-21T21:05:32;6;5.8;4.6
74434;PMS7003;62867;52.038;29.256;2023-08-21T21:11:08;4.8;4.6;3
74434;PMS7003;62867;52.038;29.256;2023-08-21T21:15:54;4;3.6;3
74434;PMS7003;62867;52.038;29.256;2023-08-21T21:20:58;6.2;5.8;2.4
74434;PMS7003;62867;52.038;29.256;2023-08-21T21:25:52;6.2;6;2.8
74434;PMS7003;62867;52.038;29.256;2023-08-21T21:30:54;6.2;6;2.6
74434;PMS7003;62867;52.038;29.256;2023-08-21T21:35:28;7.4;6.8;3
74434;PMS7003;62867;52.038;29.256;2023-08-21T21:40:51;7.2;6.2;2.6
74434;PMS7003;62867;52.038;29.256;2023-08-21T21:46:09;6.2;6.2;2.4
74434;PMS7003;62867;52.038;29.256;2023-08-21T21:50:52;7;6.6;2.4
74434;PMS7003;62867;52.038;29.256;2023-08-21T21:56:06;5.6;5.4;2
74434;PMS7003;62867;52.038;29.256;2023-08-21T22:01:08;6.3;6;2
74434;PMS7003;62867;52.038;29.256;2023-08-21T22:05:52;2.8;2.4;1.4
74434;PMS7003;62867;52.038;29.256;2023-08-21T22:10:28;3.2;3.2;1.4
74434;PMS7003;62867;52.038;29.256;2023-08-21T22:15:28;5.2;5.2;1.4
74434;PMS7003;62867;52.038;29.256;2023-08-21T22:21:06;7;6.2;2
74434;PMS7003;62867;52.038;29.256;2023-08-21T22:26:04;7.8;7;2.6
74434;PMS7003;62867;52.038;29.256;2023-08-21T22:30:42;6.6;5.6;1.6
74434;PMS7003;62867;52.038;29.256;2023-08-21T22:36:07;6.2;6.2;1.8
74434;PMS7003;62867;52.038;29.256;2023-08-21T22:41:08;8;7.2;2.8
74434;PMS7003;62867;52.038;29.256;2023-08-21T22:45:32;6.4;6.4;1.8
74434;PMS7003;62867;52.038;29.256;2023-08-21T22:50:38;7.4;7.2;3
74434;PMS7003;62867;52.038;29.256;2023-08-21T22:55:52;5.6;5.2;2
74434;PMS7003;62867;52.038;29.256;2023-08-21T23:00:55;6.5;6.5;1.8
74434;PMS7003;62867;52.038;29.256;2023-08-21T23:05:50;6.8;6.8;2.4
74434;PMS7003;62867;52.038;29.256;2023-08-21T23:10:32;6.2;6;1.8
74434;PMS7003;62867;52.038;29.256;2023-08-21T23:15:28;5.2;5.2;1.6
74434;PMS7003;62867;52.038;29.256;2023-08-21T23:20:32;6.2;6.2;1.8
74434;PMS7003;62867;52.038;29.256;2023-08-21T23:25:57;5.6;5.6;1.6
74434;PMS7003;62867;52.038;29.256;2023-08-21T23:31:08;6.4;5.2;1.2
74434;PMS7003;62867;52.038;29.256;2023-08-21T23:35:54;5.8;5.8;1.4
74434;PMS7003;62867;52.038;29.256;2023-08-21T23:41:06;4.8;4.8;1
74434;PMS7003;62867;52.038;29.256;2023-08-21T23:45:44;5.2;5.2;1.6
74434;PMS7003;62867;52.038;29.256;2023-08-21T23:50:44;4.6;4.6;1.2
74434;PMS7003;62867;52.038;29.256;2023-08-21T23:56:08;5.8;5.6;2
